createdAt,value
2019-03-19T00:00:51.518Z,95555.58
2019-03-19T00:03:59.808Z,95552.25
2019-03-19T00:07:07.145Z,95554.41
2019-03-19T00:10:14.906Z,95554.47
2019-03-19T00:13:22.867Z,95555.91
2019-03-19T00:16:30.835Z,95556.43
2019-03-19T00:19:38.124Z,95556.53
2019-03-19T00:22:45.840Z,95557.00
2019-03-19T00:25:53.684Z,95559.20
2019-03-19T00:29:01.906Z,95564.26
2019-03-19T00:32:09.254Z,95560.24
2019-03-19T00:35:17.387Z,95563.78
2019-03-19T00:38:25.009Z,95563.04
2019-03-19T00:41:32.484Z,95563.58
2019-03-19T00:44:39.811Z,95562.31
2019-03-19T00:47:47.536Z,95554.72
2019-03-19T00:50:55.085Z,95559.75
2019-03-19T00:54:04.984Z,95562.11
2019-03-19T00:57:12.202Z,95557.39
2019-03-19T01:00:19.980Z,95562.60
2019-03-19T01:03:27.731Z,95563.88
2019-03-19T01:06:36.343Z,95559.42
2019-03-19T01:09:44.110Z,95563.44
2019-03-19T01:12:51.826Z,95565.94
2019-03-19T01:16:01.349Z,95564.08
2019-03-19T01:19:08.913Z,95563.83
2019-03-19T01:22:16.210Z,95561.70
2019-03-19T01:25:23.677Z,95561.73
2019-03-19T01:28:31.221Z,95568.58
2019-03-19T01:31:38.773Z,95565.69
2019-03-19T01:34:46.612Z,95557.83
2019-03-19T01:37:54.376Z,95561.16
2019-03-19T01:41:01.675Z,95569.82
2019-03-19T01:44:09.606Z,95564.04
2019-03-19T01:47:16.899Z,95563.73
2019-03-19T01:50:24.193Z,95566.14
2019-03-19T01:53:31.478Z,95564.29
2019-03-19T01:56:38.666Z,95564.56
2019-03-19T01:59:46.552Z,95561.89
2019-03-19T02:02:54.040Z,95567.05
2019-03-19T02:06:01.337Z,95564.46
2019-03-19T02:09:09.852Z,95559.02
2019-03-19T02:12:17.132Z,95558.84
2019-03-19T02:15:24.526Z,95566.90
2019-03-19T02:18:31.856Z,95565.56
2019-03-19T02:21:39.652Z,95564.36
2019-03-19T02:24:47.338Z,95566.19
2019-03-19T02:27:54.986Z,95567.63
2019-03-19T02:31:02.384Z,95573.15
2019-03-19T02:34:09.643Z,95574.20
2019-03-19T02:37:16.794Z,95575.56
2019-03-19T02:40:23.953Z,95566.61
2019-03-19T02:43:31.119Z,95566.31
2019-03-19T02:46:38.280Z,95568.41
2019-03-19T02:49:45.423Z,95572.66
2019-03-19T02:52:52.629Z,95573.63
2019-03-19T02:55:59.839Z,95571.60
2019-03-19T02:59:07.002Z,95572.63
2019-03-19T03:02:14.498Z,95579.98
2019-03-19T03:05:22.064Z,95577.58
2019-03-19T03:08:29.553Z,95581.73
2019-03-19T03:11:36.803Z,95580.11
2019-03-19T03:14:46.233Z,95583.77
2019-03-19T03:17:53.565Z,95586.09
2019-03-19T03:21:00.841Z,95592.91
2019-03-19T03:24:07.975Z,95590.55
2019-03-19T03:27:15.162Z,95584.18
2019-03-19T03:30:22.736Z,95589.81
2019-03-19T03:33:30.728Z,95588.38
2019-03-19T03:36:38.078Z,95586.66
2019-03-19T03:39:45.425Z,95598.30
2019-03-19T03:42:52.569Z,95599.79
2019-03-19T03:46:00.201Z,95595.78
2019-03-19T03:49:07.497Z,95592.79
2019-03-19T03:52:14.776Z,95599.05
2019-03-19T03:55:22.468Z,95598.45
2019-03-19T03:58:29.961Z,95596.33
2019-03-19T04:01:37.225Z,95596.30
2019-03-19T04:04:44.599Z,95590.28
2019-03-19T04:07:52.149Z,95597.63
2019-03-19T04:10:59.422Z,95598.15
2019-03-19T04:14:06.765Z,95595.50
2019-03-19T04:17:13.911Z,95602.58
2019-03-19T04:20:21.286Z,95602.14
2019-03-19T04:23:28.768Z,95599.41
2019-03-19T04:26:36.467Z,95602.14
2019-03-19T04:29:44.257Z,95603.53
2019-03-19T04:32:51.400Z,95606.81
2019-03-19T04:35:58.900Z,95608.08
2019-03-19T04:39:07.144Z,95613.98
2019-03-19T04:42:14.710Z,95618.33
2019-03-19T04:45:22.099Z,95618.48
2019-03-19T04:48:29.233Z,95624.13
2019-03-19T04:51:36.468Z,95619.66
2019-03-19T04:54:44.594Z,95628.80
2019-03-19T04:57:52.321Z,95630.70
2019-03-19T05:01:00.111Z,95630.19
2019-03-19T05:04:07.695Z,95634.30
2019-03-19T05:07:15.013Z,95635.13
2019-03-19T05:10:22.307Z,95644.12
2019-03-19T05:13:29.488Z,95644.95
2019-03-19T05:16:37.681Z,95647.60
2019-03-19T05:19:45.206Z,95651.09
2019-03-19T05:22:53.185Z,95653.53
2019-03-19T05:26:00.477Z,95653.62
2019-03-19T05:29:08.591Z,95655.52
2019-03-19T05:32:16.079Z,95661.36
2019-03-19T05:35:23.434Z,95664.42
2019-03-19T05:38:31.326Z,95666.52
2019-03-19T05:41:39.203Z,95666.63
2019-03-19T05:44:46.619Z,95666.98
2019-03-19T05:47:53.957Z,95671.67
2019-03-19T05:51:01.104Z,95674.53
2019-03-19T05:54:08.359Z,95669.63
2019-03-19T05:57:15.826Z,95677.81
2019-03-19T06:00:24.387Z,95683.34
2019-03-19T06:03:32.393Z,95682.05
2019-03-19T06:06:39.659Z,95688.66
2019-03-19T06:09:46.807Z,95695.68
2019-03-19T06:12:54.342Z,95698.95
2019-03-19T06:16:01.504Z,95702.36
2019-03-19T06:19:09.506Z,95704.84
2019-03-19T06:22:16.704Z,95708.86
2019-03-19T06:25:24.112Z,95712.92
2019-03-19T06:28:31.263Z,95708.81
2019-03-19T06:31:38.442Z,95714.38
2019-03-19T06:34:45.896Z,95715.98
2019-03-19T06:37:53.160Z,95720.98
2019-03-19T06:41:00.441Z,95722.30
2019-03-19T06:44:07.692Z,95731.23
2019-03-19T06:47:15.212Z,95733.84
2019-03-19T06:50:22.568Z,95737.78
2019-03-19T06:53:29.732Z,95739.63
2019-03-19T06:56:37.549Z,95744.61
2019-03-19T06:59:45.144Z,95751.95
2019-03-19T07:02:52.508Z,95749.06
2019-03-19T07:05:59.667Z,95754.06
2019-03-19T07:09:08.471Z,95757.23
2019-03-19T07:12:15.908Z,95758.01
2019-03-19T07:15:23.600Z,95765.61
2019-03-19T07:18:33.668Z,95768.48
2019-03-19T07:21:40.749Z,95771.39
2019-03-19T07:24:48.204Z,95771.66
2019-03-19T07:27:55.603Z,95772.47
2019-03-19T07:31:02.912Z,95772.52
2019-03-19T07:34:10.781Z,95771.97
2019-03-19T07:37:18.172Z,95770.10
2019-03-19T07:40:25.794Z,95771.41
2019-03-19T07:43:33.178Z,95775.33
2019-03-19T07:46:40.567Z,95774.81
2019-03-19T07:49:47.983Z,95777.48
2019-03-19T07:52:55.294Z,95778.81
2019-03-19T07:56:03.142Z,95782.45
2019-03-19T07:59:10.302Z,95787.71
2019-03-19T08:02:18.374Z,95787.98
2019-03-19T08:05:32.945Z,95792.70
2019-03-19T08:08:34.606Z,95793.77
2019-03-19T08:11:43.031Z,95801.92
2019-03-19T08:14:52.014Z,95810.56
2019-03-19T08:17:59.397Z,95808.74
2019-03-19T08:21:06.567Z,95807.69
2019-03-19T08:24:13.795Z,95812.40
2019-03-19T08:27:21.428Z,95820.30
2019-03-19T08:30:28.678Z,95814.25
2019-03-19T08:33:35.851Z,95821.61
2019-03-19T08:36:43.147Z,95820.50
2019-03-19T08:39:50.772Z,95817.73
2019-03-19T08:42:58.437Z,95817.67
2019-03-19T08:46:05.911Z,95818.58
2019-03-19T08:49:13.110Z,95821.81
2019-03-19T08:52:20.702Z,95827.25
2019-03-19T08:55:28.445Z,95827.83
2019-03-19T08:58:37.929Z,95822.60
2019-03-19T09:01:47.365Z,95823.05
2019-03-19T09:04:54.446Z,95825.59
2019-03-19T09:08:02.223Z,95827.60
2019-03-19T09:11:09.556Z,95813.73
2019-03-19T09:14:16.988Z,95812.36
2019-03-19T09:17:24.606Z,95818.55
2019-03-19T09:20:32.201Z,95814.83
2019-03-19T09:23:39.481Z,95821.27
2019-03-19T09:26:46.633Z,95815.91
2019-03-19T09:29:53.915Z,95816.16
2019-03-19T09:33:01.405Z,95820.81
2019-03-19T09:36:08.575Z,95826.39
2019-03-19T09:39:15.738Z,95824.13
2019-03-19T09:42:23.151Z,95822.52
2019-03-19T09:45:30.528Z,95826.06
2019-03-19T09:48:37.717Z,95831.58
2019-03-19T09:51:45.995Z,95835.09
2019-03-19T09:54:53.236Z,95830.23
2019-03-19T09:58:00.397Z,95829.40
2019-03-19T10:01:07.767Z,95833.73
2019-03-19T10:04:15.203Z,95834.15
2019-03-19T10:07:22.708Z,95836.95
2019-03-19T10:10:30.015Z,95831.00
2019-03-19T10:13:37.686Z,95832.02
2019-03-19T10:16:45.185Z,95835.28
2019-03-19T10:19:52.449Z,95829.56
2019-03-19T10:22:59.876Z,95832.13
2019-03-19T10:26:07.055Z,95829.31
2019-03-19T10:29:14.332Z,95837.98
2019-03-19T10:32:22.257Z,95842.08
2019-03-19T10:35:29.972Z,95841.83
2019-03-19T10:38:37.555Z,95845.86
2019-03-19T10:41:44.850Z,95852.44
2019-03-19T10:44:52.450Z,95850.58
2019-03-19T10:47:59.698Z,95845.13
2019-03-19T10:51:07.062Z,95846.53
2019-03-19T10:54:15.040Z,95849.45
2019-03-19T10:57:22.637Z,95848.42
2019-03-19T11:00:29.911Z,95841.03
2019-03-19T11:03:37.524Z,95852.09
2019-03-19T11:06:44.908Z,95847.44
2019-03-19T11:09:52.075Z,95842.91
2019-03-19T11:13:00.318Z,95845.55
2019-03-19T11:16:07.946Z,95841.91
2019-03-19T11:19:15.835Z,95837.09
2019-03-19T11:22:23.763Z,95848.75
2019-03-19T11:25:31.343Z,95842.55
2019-03-19T11:28:40.226Z,95843.06
2019-03-19T11:31:47.695Z,95839.41
2019-03-19T11:34:55.063Z,95836.41
2019-03-19T11:38:02.534Z,95837.27
2019-03-19T11:41:09.907Z,95840.48
2019-03-19T11:44:17.392Z,95837.98
2019-03-19T11:47:24.831Z,95828.89
2019-03-19T11:50:33.485Z,95829.13
2019-03-19T11:53:41.355Z,95831.97
2019-03-19T11:56:49.359Z,95834.22
2019-03-19T11:59:56.510Z,95826.76
2019-03-19T12:03:12.626Z,95835.58
2019-03-19T12:06:14.807Z,95834.27
2019-03-19T12:09:22.213Z,95826.50
2019-03-19T12:12:29.372Z,95822.53
2019-03-19T12:15:37.101Z,95824.66
2019-03-19T12:18:44.293Z,95824.31
2019-03-19T12:21:51.789Z,95828.54
2019-03-19T12:24:59.499Z,95828.33
2019-03-19T12:28:07.109Z,95825.94
2019-03-19T12:31:14.262Z,95825.73
2019-03-19T12:34:21.772Z,95825.19
2019-03-19T12:37:29.290Z,95817.16
2019-03-19T12:40:37.638Z,95810.61
2019-03-19T12:43:45.195Z,95820.17
2019-03-19T12:46:52.374Z,95823.53
2019-03-19T12:50:00.353Z,95806.21
2019-03-19T12:53:07.582Z,95812.98
2019-03-19T12:56:14.851Z,95818.92
2019-03-19T12:59:22.000Z,95822.02
2019-03-19T13:02:29.443Z,95815.42
2019-03-19T13:05:36.724Z,95817.69
2019-03-19T13:08:43.987Z,95816.63
2019-03-19T13:11:51.826Z,95823.34
2019-03-19T13:14:59.413Z,95820.61
2019-03-19T13:21:22.427Z,95829.13
2019-03-19T13:24:29.673Z,95821.95
2019-03-19T13:27:36.948Z,95823.61
2019-03-19T13:30:45.532Z,95824.11
2019-03-19T13:33:53.705Z,95826.08
2019-03-19T13:37:01.416Z,95829.94
2019-03-19T13:40:11.048Z,95830.48
2019-03-19T13:43:18.223Z,95830.90
2019-03-19T13:46:25.835Z,95834.09
2019-03-19T13:49:33.000Z,95831.63
2019-03-19T13:52:40.716Z,95828.56
2019-03-19T13:55:51.499Z,95828.14
2019-03-19T13:58:59.539Z,95824.61
2019-03-19T14:02:07.108Z,95834.37
2019-03-19T14:05:14.819Z,95833.77
2019-03-19T14:08:22.676Z,95842.37
2019-03-19T14:11:30.289Z,95840.50
2019-03-19T14:14:37.689Z,95837.77
2019-03-19T14:17:45.622Z,95840.33
2019-03-19T14:20:52.932Z,95839.70
2019-03-19T14:24:00.987Z,95839.64
2019-03-19T14:27:09.138Z,95835.16
2019-03-19T14:30:17.152Z,95839.86
2019-03-19T14:33:24.422Z,95844.26
2019-03-19T14:36:31.977Z,95840.06
2019-03-19T14:39:39.771Z,95847.16
2019-03-19T14:42:47.332Z,95846.84
2019-03-19T14:45:54.836Z,95841.56
2019-03-19T14:49:03.034Z,95840.16
2019-03-19T14:52:10.392Z,95842.74
2019-03-19T14:55:18.352Z,95848.81
2019-03-19T14:58:26.375Z,95850.55
2019-03-19T15:01:33.829Z,95858.62
2019-03-19T15:04:41.315Z,95851.34
2019-03-19T15:07:48.915Z,95856.83
2019-03-19T15:10:56.587Z,95857.34
2019-03-19T15:14:04.313Z,95865.58
2019-03-19T15:17:11.927Z,95860.30
2019-03-19T15:20:19.215Z,95859.77
2019-03-19T15:23:26.959Z,95872.18
2019-03-19T15:26:34.503Z,95873.65
2019-03-19T15:29:42.210Z,95875.66
2019-03-19T15:32:49.808Z,95876.28
2019-03-19T15:35:56.990Z,95875.97
2019-03-19T15:39:07.314Z,95876.63
2019-03-19T15:42:14.904Z,95869.23
2019-03-19T15:45:22.530Z,95871.61
2019-03-19T15:48:30.792Z,95876.91
2019-03-19T15:51:38.796Z,95879.19
2019-03-19T15:54:46.484Z,95875.22
2019-03-19T15:57:54.372Z,95885.00
2019-03-19T16:01:01.894Z,95889.16
2019-03-19T16:04:10.183Z,95885.72
2019-03-19T16:07:17.915Z,95888.19
2019-03-19T16:10:26.763Z,95892.13
2019-03-19T16:13:34.185Z,95894.44
2019-03-19T16:16:42.397Z,95899.80
2019-03-19T16:19:49.895Z,95903.27
2019-03-19T16:22:57.600Z,95904.81
2019-03-19T16:26:05.621Z,95911.75
2019-03-19T16:29:12.948Z,95917.63
2019-03-19T16:32:20.782Z,95914.44
2019-03-19T16:35:28.328Z,95921.39
2019-03-19T16:38:35.562Z,95928.84
2019-03-19T16:41:43.050Z,95926.39
2019-03-19T16:44:50.847Z,95923.88
2019-03-19T16:47:58.623Z,95931.39
2019-03-19T16:51:06.017Z,95943.12
2019-03-19T16:54:13.295Z,95941.95
2019-03-19T16:57:21.667Z,95951.32
2019-03-19T17:00:29.336Z,95944.84
2019-03-19T17:03:37.081Z,95953.30
2019-03-19T17:06:45.347Z,95961.80
2019-03-19T17:09:52.934Z,95964.19
2019-03-19T17:13:00.334Z,95969.22
2019-03-19T17:16:08.035Z,95979.52
2019-03-19T17:19:15.820Z,95986.33
2019-03-19T17:22:23.844Z,95989.50
2019-03-19T17:25:31.958Z,95992.15
2019-03-19T17:28:39.338Z,95997.14
2019-03-19T17:31:46.914Z,96005.83
2019-03-19T17:34:54.370Z,96001.60
2019-03-19T17:38:01.732Z,96014.75
2019-03-19T17:41:09.382Z,96018.11
2019-03-19T17:44:16.961Z,96020.95
2019-03-19T17:47:24.423Z,96024.89
2019-03-19T17:50:32.266Z,96029.05
2019-03-19T17:53:40.025Z,96025.30
2019-03-19T17:56:47.330Z,96035.20
2019-03-19T17:59:55.183Z,96037.42
2019-03-19T18:03:02.774Z,96037.13
2019-03-19T18:06:10.227Z,96042.33
2019-03-19T18:09:17.367Z,96048.83
2019-03-19T18:12:24.807Z,96056.86
2019-03-19T18:15:32.505Z,96060.73
2019-03-19T18:18:40.169Z,96067.34
2019-03-19T18:21:47.382Z,96072.12
2019-03-19T18:24:55.194Z,96076.17
2019-03-19T18:28:02.358Z,96077.54
2019-03-19T18:31:10.602Z,96078.06
2019-03-19T18:34:19.251Z,96082.19
2019-03-19T18:37:27.401Z,96083.14
2019-03-19T18:40:35.449Z,96089.45
2019-03-19T18:43:43.042Z,96093.41
2019-03-19T18:46:57.152Z,96093.85
2019-03-19T18:50:08.045Z,96101.20
2019-03-19T18:53:15.362Z,96097.27
2019-03-19T18:56:22.983Z,96102.48
2019-03-19T18:59:30.512Z,96106.75
2019-03-19T19:02:48.721Z,96113.45
2019-03-19T19:05:47.914Z,96113.83
2019-03-19T19:08:55.606Z,96114.27
2019-03-19T19:12:03.642Z,96118.60
2019-03-19T19:15:12.970Z,96120.92
2019-03-19T19:18:20.475Z,96124.06
2019-03-19T19:21:28.275Z,96130.41
2019-03-19T19:24:35.626Z,96130.05
2019-03-19T19:27:42.992Z,96136.66
2019-03-19T19:30:51.309Z,96137.99
2019-03-19T19:33:59.238Z,96139.95
2019-03-19T19:37:06.887Z,96141.41
2019-03-19T19:40:14.363Z,96142.48
2019-03-19T19:43:21.783Z,96144.34
2019-03-19T19:46:29.483Z,96152.63
2019-03-19T19:49:38.827Z,96149.69
2019-03-19T19:52:46.479Z,96156.17
2019-03-19T19:55:53.814Z,96154.00
2019-03-19T19:59:01.208Z,96151.03
2019-03-19T20:02:08.495Z,96158.73
2019-03-19T20:05:16.128Z,96164.25
2019-03-19T20:08:23.542Z,96162.13
2019-03-19T20:11:31.139Z,96165.50
2019-03-19T20:17:44.019Z,96175.73
2019-03-19T20:20:51.547Z,96179.92
2019-03-19T20:23:59.198Z,96177.44
2019-03-19T20:27:06.444Z,96176.58
2019-03-19T20:30:16.588Z,96179.41
2019-03-19T20:33:24.936Z,96181.00
2019-03-19T20:36:33.020Z,96180.36
2019-03-19T20:39:40.866Z,96188.30
2019-03-19T20:42:48.387Z,96188.47
2019-03-19T20:45:55.741Z,96188.23
2019-03-19T20:49:03.600Z,96193.45
2019-03-19T20:52:11.178Z,96196.41
2019-03-19T20:55:18.819Z,96192.70
2019-03-19T20:58:26.639Z,96191.83
2019-03-19T21:01:34.218Z,96197.57
2019-03-19T21:04:41.870Z,96193.95
2019-03-19T21:07:49.509Z,96199.05
2019-03-19T21:10:57.005Z,96196.55
2019-03-19T21:14:04.689Z,96205.03
2019-03-19T21:17:12.399Z,96217.20
2019-03-19T21:20:20.229Z,96217.89
2019-03-19T21:23:27.621Z,96218.68
2019-03-19T21:26:35.295Z,96218.95
2019-03-19T21:29:42.993Z,96217.50
2019-03-19T21:32:50.710Z,96223.39
2019-03-19T21:35:57.879Z,96224.19
2019-03-19T21:39:06.862Z,96218.90
2019-03-19T21:42:14.414Z,96220.48
2019-03-19T21:45:21.908Z,96215.67
2019-03-19T21:48:29.199Z,96223.30
2019-03-19T21:51:36.648Z,96228.39
2019-03-19T21:54:44.621Z,96227.19
2019-03-19T21:57:52.240Z,96231.09
2019-03-19T22:00:59.636Z,96230.57
2019-03-19T22:04:08.788Z,96234.64
2019-03-19T22:07:16.588Z,96236.59
2019-03-19T22:10:23.867Z,96240.83
2019-03-19T22:13:31.335Z,96239.02
2019-03-19T22:16:38.926Z,96238.00
2019-03-19T22:19:46.345Z,96240.66
2019-03-19T22:22:53.516Z,96242.66
2019-03-19T22:26:00.898Z,96241.48
2019-03-19T22:29:08.614Z,96241.68
2019-03-19T22:32:15.871Z,96243.78
2019-03-19T22:35:23.161Z,96240.89
2019-03-19T22:38:30.782Z,96242.94
2019-03-19T22:41:38.065Z,96244.53
2019-03-19T22:44:45.669Z,96238.84
2019-03-19T22:47:53.060Z,96245.04
2019-03-19T22:51:00.670Z,96249.99
2019-03-19T22:54:07.840Z,96261.53
2019-03-19T22:57:15.085Z,96256.63
2019-03-19T23:00:39.932Z,96264.84
2019-03-19T23:03:47.279Z,96264.89
2019-03-19T23:06:54.439Z,96266.88
2019-03-19T23:10:02.863Z,96277.36
2019-03-19T23:13:12.344Z,96276.50
2019-03-19T23:16:20.479Z,96280.41
2019-03-19T23:19:28.092Z,96282.20
2019-03-19T23:22:35.456Z,96283.79
2019-03-19T23:25:42.846Z,96285.97
2019-03-19T23:28:49.974Z,96286.03
2019-03-19T23:31:57.242Z,96280.30
2019-03-19T23:35:05.134Z,96277.67
2019-03-19T23:38:12.964Z,96277.30
2019-03-19T23:41:20.481Z,96284.84
2019-03-19T23:44:28.059Z,96282.91
2019-03-19T23:47:35.453Z,96283.70
2019-03-19T23:50:42.929Z,96277.99
2019-03-19T23:53:51.324Z,96281.46
2019-03-19T23:56:59.164Z,96280.30
